createdAt,value
2017-08-22T00:00:48.801Z,14.30
2017-08-22T00:06:45.666Z,14.30
2017-08-22T00:09:13.930Z,14.30
2017-08-22T00:11:42.210Z,14.30
2017-08-22T00:14:10.497Z,14.30
2017-08-22T00:16:38.772Z,14.30
2017-08-22T00:19:07.062Z,14.30
2017-08-22T00:21:35.348Z,14.30
2017-08-22T00:24:03.727Z,14.20
2017-08-22T00:26:31.989Z,14.20
2017-08-22T00:29:00.256Z,14.20
2017-08-22T00:31:28.522Z,14.20
2017-08-22T00:33:56.813Z,14.20
2017-08-22T00:36:25.074Z,14.10
2017-08-22T00:38:53.372Z,14.10
2017-08-22T00:41:21.698Z,14.10
2017-08-22T00:43:50.049Z,14.10
2017-08-22T00:46:18.414Z,14.10
2017-08-22T00:48:46.802Z,14.10
2017-08-22T00:51:15.057Z,14.10
2017-08-22T00:53:43.418Z,14.10
2017-08-22T00:56:11.689Z,14.10
2017-08-22T00:58:40.018Z,14.00
2017-08-22T01:01:08.275Z,14.00
2017-08-22T01:03:36.548Z,13.90
2017-08-22T01:06:04.834Z,13.90
2017-08-22T01:08:33.100Z,14.00
2017-08-22T01:11:02.064Z,14.00
2017-08-22T01:13:30.482Z,13.90
2017-08-22T01:15:58.746Z,13.90
2017-08-22T01:18:27.035Z,13.80
2017-08-22T01:20:55.299Z,13.80
2017-08-22T01:23:23.593Z,13.80
2017-08-22T01:25:51.869Z,13.70
2017-08-22T01:28:20.197Z,13.60
2017-08-22T01:30:48.525Z,13.60
2017-08-22T01:33:16.907Z,13.60
2017-08-22T01:35:45.278Z,13.50
2017-08-22T01:38:13.543Z,13.50
2017-08-22T01:40:41.842Z,13.50
2017-08-22T01:43:10.106Z,13.40
2017-08-22T01:45:38.384Z,13.40
2017-08-22T01:48:06.705Z,13.40
2017-08-22T01:50:35.020Z,13.30
2017-08-22T01:53:03.346Z,13.30
2017-08-22T01:55:31.712Z,13.30
2017-08-22T01:58:00.092Z,13.30
2017-08-22T02:00:28.387Z,13.30
2017-08-22T02:02:56.801Z,13.20
2017-08-22T02:05:25.160Z,13.20
2017-08-22T02:07:53.425Z,13.20
2017-08-22T02:10:21.704Z,13.10
2017-08-22T02:12:49.973Z,13.10
2017-08-22T02:15:18.374Z,13.10
2017-08-22T02:17:46.742Z,13.00
2017-08-22T02:20:15.130Z,13.00
2017-08-22T02:22:43.406Z,13.00
2017-08-22T02:25:11.837Z,12.90
2017-08-22T02:27:40.162Z,12.90
2017-08-22T02:30:08.456Z,12.90
2017-08-22T02:32:36.709Z,12.90
2017-08-22T02:35:05.101Z,12.90
2017-08-22T02:37:33.477Z,12.90
2017-08-22T02:40:01.757Z,12.80
2017-08-22T02:42:30.138Z,12.90
2017-08-22T02:44:58.513Z,12.90
2017-08-22T02:47:26.880Z,12.90
2017-08-22T02:49:55.139Z,12.80
2017-08-22T02:52:23.450Z,12.80
2017-08-22T02:54:51.812Z,12.80
2017-08-22T02:57:20.191Z,12.70
2017-08-22T02:59:48.484Z,12.70
2017-08-22T03:02:16.850Z,12.80
2017-08-22T03:04:45.126Z,12.80
2017-08-22T03:07:13.424Z,12.70
2017-08-22T03:09:41.709Z,12.70
2017-08-22T03:12:09.987Z,12.70
2017-08-22T03:14:39.062Z,12.80
2017-08-22T03:17:07.433Z,12.80
2017-08-22T03:19:35.703Z,12.90
2017-08-22T03:22:03.981Z,12.90
2017-08-22T03:24:32.468Z,12.90
2017-08-22T03:27:00.759Z,12.90
2017-08-22T03:29:29.037Z,12.90
2017-08-22T03:31:57.306Z,13.00
2017-08-22T03:34:25.717Z,13.00
2017-08-22T03:36:55.266Z,13.00
2017-08-22T03:39:23.573Z,13.00
2017-08-22T03:41:51.945Z,13.00
2017-08-22T03:44:20.196Z,13.00
2017-08-22T03:46:49.245Z,12.90
2017-08-22T03:49:17.501Z,12.80
2017-08-22T03:51:45.820Z,12.90
2017-08-22T03:54:14.105Z,12.80
2017-08-22T03:56:42.394Z,12.90
2017-08-22T03:59:10.710Z,12.90
2017-08-22T04:01:39.098Z,12.90
2017-08-22T04:04:07.559Z,12.90
2017-08-22T04:06:35.830Z,12.80
2017-08-22T04:09:04.114Z,12.80
2017-08-22T04:11:32.412Z,12.90
2017-08-22T04:14:00.685Z,12.80
2017-08-22T04:16:29.039Z,12.80
2017-08-22T04:18:57.325Z,12.80
2017-08-22T04:21:25.585Z,12.70
2017-08-22T04:23:53.974Z,12.80
2017-08-22T04:26:22.262Z,12.80
2017-08-22T04:28:50.636Z,12.70
2017-08-22T04:31:18.917Z,12.80
2017-08-22T04:33:47.225Z,12.70
2017-08-22T04:36:15.491Z,12.70
2017-08-22T04:38:43.762Z,12.80
2017-08-22T04:41:12.144Z,12.80
2017-08-22T04:43:40.399Z,12.80
2017-08-22T04:46:08.786Z,12.80
2017-08-22T04:48:37.031Z,12.80
2017-08-22T04:51:05.313Z,12.80
2017-08-22T04:53:33.610Z,12.80
2017-08-22T04:56:01.889Z,12.80
2017-08-22T04:58:30.171Z,12.70
2017-08-22T05:00:58.550Z,12.80
2017-08-22T05:03:26.807Z,12.80
2017-08-22T05:05:55.079Z,12.80
2017-08-22T05:08:23.372Z,12.80
2017-08-22T05:10:51.650Z,12.80
2017-08-22T05:13:20.033Z,12.80
2017-08-22T05:15:48.301Z,12.90
2017-08-22T05:18:16.694Z,12.90
2017-08-22T05:20:44.958Z,12.90
2017-08-22T05:23:13.236Z,13.00
2017-08-22T05:25:41.518Z,13.00
2017-08-22T05:28:09.913Z,13.10
2017-08-22T05:30:38.184Z,13.10
2017-08-22T05:33:06.505Z,13.10
2017-08-22T05:35:34.867Z,13.10
2017-08-22T05:38:03.221Z,13.20
2017-08-22T05:40:31.511Z,13.20
2017-08-22T05:42:59.782Z,13.20
2017-08-22T05:45:28.137Z,13.30
2017-08-22T05:47:56.393Z,13.40
2017-08-22T05:50:24.689Z,13.50
2017-08-22T05:52:52.970Z,13.60
2017-08-22T05:55:21.239Z,13.60
2017-08-22T05:57:49.531Z,13.70
2017-08-22T06:00:17.904Z,13.70
2017-08-22T06:02:46.148Z,13.80
2017-08-22T06:05:14.430Z,13.90
2017-08-22T06:07:42.738Z,13.90
2017-08-22T06:10:11.014Z,14.00
2017-08-22T06:12:39.502Z,14.10
2017-08-22T06:15:07.781Z,14.20
2017-08-22T06:17:36.089Z,14.30
2017-08-22T06:20:05.168Z,14.40
2017-08-22T06:22:33.434Z,14.30
2017-08-22T06:25:01.739Z,14.50
2017-08-22T06:27:30.090Z,14.60
2017-08-22T06:29:58.364Z,14.70
2017-08-22T06:32:26.643Z,15.00
2017-08-22T06:34:54.903Z,15.30
2017-08-22T06:37:23.294Z,15.20
2017-08-22T06:39:51.560Z,15.00
2017-08-22T06:42:19.830Z,14.90
2017-08-22T06:44:48.224Z,14.80
2017-08-22T06:47:16.490Z,14.90
2017-08-22T06:49:44.789Z,14.80
2017-08-22T06:52:13.066Z,14.80
2017-08-22T06:54:42.094Z,14.80
2017-08-22T06:57:10.383Z,14.70
2017-08-22T06:59:38.692Z,14.80
2017-08-22T07:02:07.069Z,14.90
2017-08-22T07:04:35.345Z,14.90
2017-08-22T07:07:03.671Z,15.10
2017-08-22T07:09:31.958Z,15.20
2017-08-22T07:12:00.233Z,15.20
2017-08-22T07:14:28.496Z,15.30
2017-08-22T07:16:56.868Z,15.30
2017-08-22T07:19:25.130Z,15.30
2017-08-22T07:21:53.398Z,15.30
2017-08-22T07:24:21.687Z,15.30
2017-08-22T07:26:50.057Z,15.50
2017-08-22T07:29:18.360Z,15.50
2017-08-22T07:31:46.601Z,15.50
2017-08-22T07:34:14.912Z,15.50
2017-08-22T07:36:43.165Z,15.50
2017-08-22T07:39:11.432Z,15.50
2017-08-22T07:41:39.739Z,15.70
2017-08-22T07:44:08.008Z,15.80
2017-08-22T07:46:36.313Z,16.00
2017-08-22T07:49:04.667Z,16.20
2017-08-22T07:51:32.949Z,16.40
2017-08-22T07:54:01.320Z,16.50
2017-08-22T07:56:29.604Z,16.50
2017-08-22T07:58:57.896Z,16.40
2017-08-22T08:01:26.160Z,16.60
2017-08-22T08:03:54.419Z,16.80
2017-08-22T08:06:22.705Z,16.90
2017-08-22T08:08:50.982Z,17.10
2017-08-22T08:11:19.286Z,17.10
2017-08-22T08:13:47.646Z,17.00
2017-08-22T08:16:16.030Z,17.10
2017-08-22T08:18:44.322Z,17.00
2017-08-22T08:21:12.580Z,16.90
2017-08-22T08:23:40.866Z,16.90
2017-08-22T08:26:09.120Z,17.00
2017-08-22T08:28:37.407Z,17.10
2017-08-22T08:31:05.681Z,17.10
2017-08-22T08:33:33.981Z,17.10
2017-08-22T08:36:02.236Z,16.90
2017-08-22T08:38:30.523Z,17.10
2017-08-22T08:40:58.898Z,17.10
2017-08-22T08:43:27.173Z,17.20
2017-08-22T08:45:55.544Z,17.20
2017-08-22T08:48:23.838Z,17.30
2017-08-22T08:50:52.107Z,17.20
2017-08-22T08:53:20.400Z,17.20
2017-08-22T08:55:48.753Z,17.10
2017-08-22T08:58:17.069Z,17.20
2017-08-22T09:00:45.333Z,17.30
2017-08-22T09:03:13.709Z,17.50
2017-08-22T09:05:42.078Z,17.50
2017-08-22T09:08:10.344Z,17.40
2017-08-22T09:10:38.735Z,17.30
2017-08-22T09:13:07.035Z,17.20
2017-08-22T09:15:35.393Z,17.20
2017-08-22T09:18:03.780Z,17.10
2017-08-22T09:20:32.090Z,17.20
2017-08-22T09:23:00.427Z,17.20
2017-08-22T09:25:28.721Z,17.30
2017-08-22T09:27:57.042Z,17.20
2017-08-22T09:30:25.315Z,17.30
2017-08-22T09:32:53.580Z,17.50
2017-08-22T09:35:22.734Z,17.90
2017-08-22T09:37:50.988Z,17.90
2017-08-22T09:40:19.310Z,17.70
2017-08-22T09:42:47.580Z,17.80
